Latest Coastal Weather Observations for South Johnstone

IDQ60701

Issued at 12:22 am EST Thursday 11 August 2022 (issued every 10 minutes, with the page automatically refreshed every 10 minutes)

About coastal observations | Map of coastal stations | Coastal observations for QLD | Marine services | Other Formats
Station Details ID: 032037 Name: SOUTH JOHNSTONE EXP STN Lat: -17.61 Lon: 146.00 Height: 18.3 m
Data from the previous 72 hours. | See also: Recent months at South Johnstone
Date/Time
EST
Wind Sea
Height
m
Swell Vis
km
Cloud Weather Temp
°C
Press
MSL
hPa
Rain since
9am
mm
Dir  Spd
kts
Gust
kts
Height
m
Period
s
Dir
11/12:00am ESE 1 5 - - - - - - - 19.5 1019.6 0.0
 
Date/Time
EST
Wind Sea
Height
m
Swell Vis
km
Cloud Weather Temp
°C
Press
MSL
hPa
Rain since
9am
mm
Dir  Spd
kts
Gust
kts
Height
m
Period
s
Dir
10/11:30pm S 5 10 - - - - - - - 20.5 1019.6 0.0
10/11:00pm S 3 7 - - - - - - - 20.0 1020.0 0.0
10/10:30pm S 3 7 - - - - - - - 19.7 1020.0 0.0
10/10:00pm SSE 2 8 - - - - - - - 20.0 1020.1 0.0
10/09:30pm SSE 6 9 - - - - - - - 20.2 1020.1 0.0
10/09:00pm SSW 6 10 - - - - - - - 20.1 1020.0 0.0
10/08:30pm SSW 6 11 - - - - - - - 20.8 1019.8 0.0
10/08:00pm SSW 5 7 - - - - - - - 20.5 1019.6 0.0
10/07:30pm SSW 4 7 - - - - - - - 20.4 1019.3 0.0
10/07:00pm S 5 8 - - - - - - - 20.5 1019.1 0.0
10/06:30pm S 5 8 - - - - - - - 20.5 1018.8 0.0
10/06:00pm S 5 10 - - - - - - - 20.7 1018.7 0.0
10/05:30pm S 6 9 - - - - - - - 20.8 1018.3 0.0
10/05:00pm S 8 13 - - - - - - - 21.0 1018.1 0.0
10/04:30pm S 7 14 - - - - - - - 21.4 1017.9 0.0
10/04:00pm SSE 8 14 - - - - - - - 21.3 1018.0 0.0
10/03:30pm S 8 13 - - - - - - - 21.0 1017.9 0.0
10/03:00pm SSE 8 12 - - - - - - - 22.0 1018.0 0.0
10/02:30pm SSE 9 18 - - - - - - - 21.7 1018.2 0.0
10/02:00pm S 9 15 - - - - - - - 21.5 1018.3 0.0
10/01:30pm SSE 8 14 - - - - - - - 21.7 1018.6 0.0
10/01:00pm SSE 9 14 - - - - - - - 21.8 1018.9 0.0
10/12:30pm SE 8 15 - - - - - - - 22.4 1019.3 0.0
10/12:00pm SSE 9 15 - - - - - - - 21.6 1019.7 0.0
10/11:30am S 8 13 - - - - - - - 21.5 1020.1 0.0
10/11:00am S 6 12 - - - - - - - 22.0 1020.3 0.0
10/10:30am S 7 11 - - - - - - - 21.0 1020.7 0.0
10/10:00am SSW 5 10 - - - - - - - 21.5 1020.8 0.0
10/09:30am SSW 6 9 - - - - - - - 21.0 1020.6 0.0
10/09:00am SW 1 7 - - - - - - - 20.1 1020.4 0.2
10/08:30am CALM 0 0 - - - - - - - 17.8 1020.3 0.2
10/08:00am CALM 0 0 - - - - - - - 16.5 1020.2 0.2
10/07:30am CALM 0 0 - - - - - - - 14.8 1020.0 0.2
10/07:00am CALM 0 1 - - - - - - - 14.1 1019.7 0.2
10/06:30am NNW 2 5 - - - - - - - 14.2 1019.1 0.2
10/06:00am NW 3 5 - - - - - - - 14.2 1018.8 0.2
10/05:30am WNW 1 4 - - - - - - - 14.3 1018.3 0.2
10/05:00am W 1 4 - - - - - - - 14.5 1018.2 0.2
10/04:30am WNW 1 4 - - - - - - - 14.6 1018.0 0.2
10/04:00am CALM 0 3 - - - - - - - 14.6 1017.9 0.2
10/03:30am NW 1 4 - - - - - - - 14.9 1018.3 0.2
10/03:00am W 1 5 - - - - - - - 15.1 1018.5 0.2
10/02:30am WSW 4 5 - - - - - - - 15.3 1018.6 0.2
10/02:00am WNW 1 5 - - - - - - - 15.5 1018.9 0.2
10/01:30am WNW 1 5 - - - - - - - 15.5 1019.0 0.2
10/01:00am CALM 0 2 - - - - - - - 15.8 1019.0 0.2
10/12:30am CALM 0 3 - - - - - - - 16.0 1019.3 0.2
10/12:00am CALM 0 0 - - - - - - - 16.3 1019.4 0.2
 
Date/Time
EST
Wind Sea
Height
m
Swell Vis
km
Cloud Weather Temp
°C
Press
MSL
hPa
Rain since
9am
mm
Dir  Spd
kts
Gust
kts
Height
m
Period
s
Dir
09/11:30pm CALM 0 3 - - - - - - - 16.5 1019.8 0.2
09/11:00pm NW 3 4 - - - - - - - 16.4 1019.9 0.2
09/10:30pm CALM 0 3 - - - - - - - 16.7 1019.9 0.2
09/10:00pm SW 1 4 - - - - - - - 17.3 1019.8 0.2
09/09:30pm CALM 0 1 - - - - - - - 17.6 1019.8 0.2
09/09:00pm CALM 0 4 - - - - - - - 17.8 1019.6 0.2
09/08:30pm CALM 0 0 - - - - - - - 17.7 1019.4 0.2
09/08:00pm CALM 0 0 - - - - - - - 17.6 1019.1 0.2
09/07:30pm CALM 0 0 - - - - - - - 17.8 1018.5 0.2
09/07:00pm S 4 7 - - - - - - - 18.8 1017.9 0.2
09/06:30pm S 3 6 - - - - - - - 18.4 1017.6 0.2
09/06:00pm CALM 0 3 - - - - - - - 18.8 1017.3 0.2
09/05:30pm SSE 3 7 - - - - - - - 19.8 1017.1 0.2
09/05:00pm SSE 6 10 - - - - - - - 20.6 1016.7 0.2
09/04:30pm SSE 7 11 - - - - - - - 20.7 1016.4 0.2
09/04:00pm SSE 7 12 - - - - - - - 20.9 1016.2 0.2
09/03:30pm SSE 7 13 - - - - - - - 20.8 1016.0 0.2
09/03:00pm SSW 7 10 - - - - - - - 20.3 1016.1 0.2
09/02:30pm SSW 7 12 - - - - - - - 20.2 1016.2 0.2
09/02:00pm SSW 5 8 - - - - - - - 20.0 1016.6 0.2
09/01:30pm SSW 6 9 - - - - - - - 20.1 1017.2 0.2
09/01:00pm S 7 13 - - - - - - - 20.5 1017.5 0.2
09/12:30pm SSW 5 10 - - - - - - - 20.9 1017.8 0.2
09/12:00pm SSW 6 9 - - - - - - Recent precip. 21.0 1018.2 0.2
09/11:30am S 7 10 - - - - - - - 21.3 1018.6 0.0
09/11:00am SSE 7 14 - - - - - - - 21.7 1018.7 0.0
09/10:30am SSE 7 11 - - - - - - - 21.8 1018.9 0.0
09/10:00am S 6 11 - - - - - - - 21.4 1019.2 0.0
09/09:30am S 6 9 - - - - - - - 21.4 1019.2 0.0
09/09:00am SSE 7 13 - - - - - - - 21.6 1019.1 3.0
09/08:30am SE 6 11 - - - - - - - 21.9 1018.8 3.0
09/08:00am SSE 4 8 - - - - - - - 21.0 1018.4 3.0
09/07:30am SSE 4 8 - - - - - - - 20.4 1018.0 3.0
09/07:00am SSE 3 7 - - - - - - - 20.0 1017.9 3.0
09/06:30am CALM 0 0 - - - - - - - 19.7 1017.5 3.0
09/06:00am S 2 6 - - - - - - - 20.1 1017.2 3.0
09/05:30am SSE 2 7 - - - - - - - 20.2 1017.0 3.0
09/05:00am SSE 5 7 - - - - - - - 20.5 1016.8 3.0
09/04:30am SSE 4 9 - - - - - - - 20.4 1016.6 3.0
09/04:00am S 5 9 - - - - - - - 20.8 1016.4 3.0
09/03:30am SSE 5 8 - - - - - - - 20.8 1016.4 2.8
09/03:00am SSE 5 9 - - - - - - - 21.1 1016.6 2.8
09/02:30am S 5 10 - - - - - - - 21.0 1016.7 2.8
09/02:00am S 5 9 - - - - - - - 21.0 1016.8 2.8
09/01:30am S 4 6 - - - - - - - 21.1 1017.1 2.8
09/01:00am SSW 1 5 - - - - - - - 21.0 1017.3 2.8
09/12:30am SSW 3 5 - - - - - - - 20.8 1017.4 2.8
09/12:00am SW 4 7 - - - - - - - 20.4 1017.5 2.6
 
Date/Time
EST
Wind Sea
Height
m
Swell Vis
km
Cloud Weather Temp
°C
Press
MSL
hPa
Rain since
9am
mm
Dir  Spd
kts
Gust
kts
Height
m
Period
s
Dir
08/11:30pm SSW 4 9 - - - - - - - 20.2 1017.4 2.6
08/11:00pm WSW 6 8 - - - - - - - 19.9 1017.5 2.6
08/10:30pm SW 5 9 - - - - - - - 20.1 1017.5 2.6
08/10:00pm SW 5 7 - - - - - - - 20.4 1017.5 2.4
08/09:30pm WSW 5 7 - - - - - - - 20.1 1017.4 2.4
08/09:00pm SW 5 9 - - - - - - Recent precip. 20.4 1017.3 2.4
08/08:30pm SSW 5 8 - - - - - - - 20.5 1017.2 2.2
08/08:00pm S 6 10 - - - - - - - 20.4 1017.1 2.2
08/07:30pm SSE 6 12 - - - - - - - 20.3 1016.8 2.0
08/07:00pm SSE 6 9 - - - - - - - 20.7 1016.4 2.0
08/06:30pm SSE 6 11 - - - - - - - 21.1 1016.1 2.0
08/06:00pm SSE 6 11 - - - - - - Recent precip. 21.4 1015.7 1.8
08/05:30pm S 5 9 - - - - - - - 21.8 1015.5 1.8
08/05:00pm SSE 6 9 - - - - - - - 21.8 1015.3 1.6
08/04:30pm S 5 12 - - - - - - - 21.7 1015.1 1.4
08/04:00pm SSE 6 11 - - - - - - - 22.0 1015.0 1.2
08/03:30pm S 6 9 - - - - - - - 22.5 1014.8 1.2
08/03:00pm SSE 7 12 - - - - - - - 23.4 1014.8 1.2
08/02:30pm SSE 7 12 - - - - - - - 23.0 1015.0 1.2
08/02:00pm SE 8 13 - - - - - - - 24.0 1015.2 1.2
08/01:30pm ESE 9 13 - - - - - - - 24.2 1015.6 1.2
08/01:00pm SE 8 15 - - - - - - - 23.5 1016.0 1.2
08/12:30pm SE 7 13 - - - - - - - 23.7 1016.3 1.2
08/12:00pm SE 7 11 - - - - - - - 23.1 1016.6 1.0
08/11:30am SSE 5 9 - - - - - - - 23.5 1016.8 1.0
08/11:00am SE 7 12 - - - - - - - 24.0 1017.1 1.0
08/10:30am SE 8 13 - - - - - - - 24.1 1017.3 0.8
08/10:00am ESE 6 12 - - - - - - - 24.6 1017.5 0.8
08/09:30am SSE 4 7 - - - - - - - 23.1 1017.6 0.4
08/09:00am S 4 8 - - - - - - Rain 22.3 1017.3 3.8
08/08:30am CALM 0 0 - - - - - - - 21.3 1017.1 3.2
08/08:00am CALM 0 0 - - - - - - - 20.9 1016.9 2.4
08/07:30am CALM 0 0 - - - - - - - 20.5 1016.6 2.2
08/07:00am CALM 0 0 - - - - - - - 20.3 1016.2 2.0
08/06:30am WSW 3 5 - - - - - - - 20.2 1015.9 2.0
08/06:00am CALM 0 0 - - - - - - - 20.0 1015.7 2.0
08/05:30am SW 1 5 - - - - - - - 19.8 1015.3 2.0
08/05:00am WSW 3 4 - - - - - - - 19.8 1015.2 2.0
08/04:30am CALM 0 0 - - - - - - - 19.8 1015.1 2.0
08/04:00am CALM 0 0 - - - - - - - 19.8 1015.0 1.0
08/03:30am CALM 0 0 - - - - - - - 19.8 1015.1 0.4
08/03:00am W 1 4 - - - - - - - 19.8 1015.1 0.4
08/02:30am WSW 5 6 - - - - - - - 19.4 1015.2 0.4
08/02:00am WSW 5 7 - - - - - - - 19.3 1015.4 0.4
08/01:30am WSW 5 8 - - - - - - - 19.1 1015.6 0.4
08/01:00am WSW 5 7 - - - - - - - 19.1 1015.9 0.4
08/12:30am CALM 0 0 - - - - - - - 19.1 1016.0 0.4

Other formats

Comma delimited format used in spreadsheet applications
http://www.bom.gov.au/fwo/IDQ60701/IDQ60701.95292.axf

JavaScript Object Notation format (JSON) in row-major order
http://www.bom.gov.au/fwo/IDQ60701/IDQ60701.95292.json

Data quality

Most of these data are generated automatically and are frequently updated. Quality checks on data are not normally performed. It is possible for incorrect values to appear. Refer to information at About Latest Weather Observations and please check the disclaimer before using these data.